East Rochester, New York
Current Conditions -  °F | °C
As of 3:54 AM on Friday 31 Oct 2014 (Local Time) from KROC Reporting Station
Overcast Overcast  
Wind Chill: 42°   Ceiling: 8500
Heat Index: 42°   Visibility: 10mi
Dew Point: 37°   Wind: 3mph
Humidity: 82%   Direction: 240°WSW
Pressure: 29.99"   Gusts: NA
Location:  43.11°N, 77.49°W
Report Text: KROC 310754Z 24003KT 10SM OVC085 06/03 A2999 RMK AO2 SLP163 T00560028
Loading
Personal Weather Stations






























Interactive Weather Map
Tropical Storm Tracking
New forecast layout! Learn more

10-Day Weather Forecast

Advertisements
Track Severe Weather on mobile